Time;durP1;ratioP1;P1;durP2;ratioP2;P2;SDS_P1;SDS_P2;PMS_P1;PMS_P2;Temp;Humidity;BMP_temperature;BMP_pressure;BME280_temperature;BME280_humidity;BME280_pressure;Samples;Min_cycle;Max_cycle;Signal;HPM_P1;HPM_P2
2023/09/09 00:01:02;;;;;;;11.20;10.10;;;;;;;;;;4932789;29;20196;-75
2023/09/09 00:03:28;;;;;;;11.80;10.60;;;;;;;;;;4933120;29;20204;-77
2023/09/09 00:05:55;;;;;;;11.70;10.60;;;;;;;;;;4915390;29;20438;-77
2023/09/09 00:08:21;;;;;;;11.17;10.17;;;;;;;;;;4914017;29;20191;-78
2023/09/09 00:10:47;;;;;;;10.87;9.87;;;;;;;;;;4914951;29;20245;-75
2023/09/09 00:13:13;;;;;;;11.50;10.30;;;;;;;;;;4912006;29;20174;-76
2023/09/09 00:15:40;;;;;;;11.77;10.50;;;;;;;;;;4891609;29;20328;-76
2023/09/09 00:18:06;;;;;;;10.83;9.83;;;;;;;;;;4918535;29;20522;-75
2023/09/09 00:20:36;;;;;;;11.00;9.90;;;;;;;;;;4912120;29;20214;-78
2023/09/09 00:23:07;;;;;;;11.40;10.37;;;;;;;;;;4914302;29;20185;-76
2023/09/09 00:25:40;;;;;;;9.87;8.97;;;;;;;;;;4913272;29;20675;-76
2023/09/09 00:28:07;;;;;;;10.67;8.93;;;;;;;;;;4913616;29;20241;-75
2023/09/09 00:30:33;;;;;;;9.30;8.50;;;;;;;;;;4913595;29;20307;-76
2023/09/09 00:33:00;;;;;;;10.40;9.40;;;;;;;;;;4897319;29;20666;-75
2023/09/09 00:35:27;;;;;;;10.70;9.50;;;;;;;;;;4912841;29;20718;-76
2023/09/09 00:37:53;;;;;;;10.03;8.90;;;;;;;;;;4913722;29;20186;-77
2023/09/09 00:40:19;;;;;;;9.60;8.70;;;;;;;;;;4911671;29;20219;-76
2023/09/09 00:42:45;;;;;;;9.97;8.97;;;;;;;;;;4913960;29;20242;-77
2023/09/09 00:45:11;;;;;;;10.27;9.13;;;;;;;;;;4914469;29;20218;-76
2023/09/09 00:47:38;;;;;;;10.17;9.17;;;;;;;;;;4913730;29;20190;-76
2023/09/09 00:50:08;;;;;;;9.97;9.07;;;;;;;;;;4914752;29;20281;-75
2023/09/09 00:52:36;;;;;;;11.87;9.73;;;;;;;;;;4912999;29;20655;-75
2023/09/09 00:55:03;;;;;;;9.37;8.57;;;;;;;;;;4913507;29;20210;-75
2023/09/09 00:57:29;;;;;;;9.23;8.43;;;;;;;;;;4915596;29;20186;-75
2023/09/09 00:59:57;;;;;;;9.97;9.00;;;;;;;;;;4911158;29;20265;-75
2023/09/09 01:02:23;;;;;;;10.00;9.00;;;;;;;;;;4909646;29;20696;-76
2023/09/09 01:04:49;;;;;;;8.97;8.17;;;;;;;;;;4914776;29;20217;-76
2023/09/09 01:07:16;;;;;;;9.07;8.20;;;;;;;;;;4913962;29;20182;-76
2023/09/09 01:09:42;;;;;;;10.20;9.20;;;;;;;;;;4914798;29;20198;-75
2023/09/09 01:12:11;;;;;;;9.90;9.00;;;;;;;;;;4913086;29;20182;-75
2023/09/09 01:14:38;;;;;;;10.47;9.47;;;;;;;;;;4914356;29;20190;-76
2023/09/09 01:17:05;;;;;;;11.00;9.90;;;;;;;;;;4906591;29;20218;-75
2023/09/09 01:19:32;;;;;;;10.80;9.80;;;;;;;;;;4912005;29;20202;-76
2023/09/09 01:22:03;;;;;;;10.40;9.40;;;;;;;;;;4908971;29;20772;-75
2023/09/09 01:24:32;;;;;;;10.83;9.73;;;;;;;;;;4909493;29;20186;-75
2023/09/09 01:26:58;;;;;;;10.63;9.63;;;;;;;;;;4908690;29;20222;-75
2023/09/09 01:29:25;;;;;;;10.30;9.23;;;;;;;;;;4910325;29;20190;-75
2023/09/09 01:31:51;;;;;;;9.60;8.80;;;;;;;;;;4910793;29;20678;-75
2023/09/09 01:34:17;;;;;;;9.70;8.70;;;;;;;;;;4908151;29;20190;-75
2023/09/09 01:36:43;;;;;;;9.80;8.83;;;;;;;;;;4907094;29;20222;-75
2023/09/09 01:39:09;;;;;;;11.10;9.50;;;;;;;;;;4909959;29;20246;-75
2023/09/09 01:41:35;;;;;;;10.33;9.30;;;;;;;;;;4910621;29;20197;-75
2023/09/09 01:44:02;;;;;;;11.20;10.07;;;;;;;;;;4909739;29;20237;-75
2023/09/09 01:46:28;;;;;;;11.63;9.53;;;;;;;;;;4894112;29;20841;-76
2023/09/09 01:48:54;;;;;;;11.97;10.77;;;;;;;;;;4908985;29;20261;-76
2023/09/09 01:51:20;;;;;;;11.30;10.20;;;;;;;;;;4895446;29;20285;-76
2023/09/09 01:53:46;;;;;;;11.33;10.13;;;;;;;;;;4910225;29;20191;-75
2023/09/09 01:56:12;;;;;;;11.27;10.27;;;;;;;;;;4911666;29;20302;-76
2023/09/09 01:58:39;;;;;;;11.87;10.27;;;;;;;;;;4910701;29;20225;-75
2023/09/09 02:01:05;;;;;;;10.57;9.60;;;;;;;;;;4889930;29;21106;-75
2023/09/09 02:03:31;;;;;;;9.73;8.83;;;;;;;;;;4912534;29;20560;-75
2023/09/09 02:05:57;;;;;;;10.20;9.20;;;;;;;;;;4912936;29;20218;-75
2023/09/09 02:08:23;;;;;;;11.40;10.30;;;;;;;;;;4913714;29;20190;-75
2023/09/09 02:10:51;;;;;;;11.67;10.37;;;;;;;;;;4919707;29;20253;-77
2023/09/09 02:13:17;;;;;;;10.67;9.67;;;;;;;;;;4913787;29;20190;-75
2023/09/09 02:15:44;;;;;;;10.00;9.10;;;;;;;;;;4909741;29;20230;-75
2023/09/09 02:18:10;;;;;;;10.60;9.37;;;;;;;;;;4916024;29;20553;-75
2023/09/09 02:20:37;;;;;;;9.53;8.73;;;;;;;;;;4916192;29;20476;-77
2023/09/09 02:23:03;;;;;;;10.23;9.23;;;;;;;;;;4913713;29;20269;-77
2023/09/09 02:25:29;;;;;;;10.83;9.57;;;;;;;;;;4912242;29;20210;-75
2023/09/09 02:27:55;;;;;;;9.67;8.77;;;;;;;;;;4913121;29;20187;-75
2023/09/09 02:30:21;;;;;;;10.60;9.60;;;;;;;;;;4913580;29;20269;-75
2023/09/09 02:32:49;;;;;;;10.17;8.67;;;;;;;;;;4896600;29;20332;-75
2023/09/09 02:35:15;;;;;;;8.57;7.87;;;;;;;;;;4911962;29;20214;-74
2023/09/09 02:37:41;;;;;;;8.50;7.70;;;;;;;;;;4909257;29;20687;-75
2023/09/09 02:40:09;;;;;;;7.00;6.40;;;;;;;;;;4906316;29;20214;-75
2023/09/09 02:42:35;;;;;;;7.97;7.23;;;;;;;;;;4913585;29;20214;-75
2023/09/09 02:45:02;;;;;;;9.23;8.43;;;;;;;;;;4911468;29;20272;-75
2023/09/09 02:47:28;;;;;;;9.97;8.77;;;;;;;;;;4913380;29;20682;-75
2023/09/09 02:49:54;;;;;;;9.93;8.93;;;;;;;;;;4911688;29;20250;-75
2023/09/09 02:52:20;;;;;;;10.27;9.37;;;;;;;;;;4913121;29;20179;-75
2023/09/09 02:54:47;;;;;;;9.67;8.80;;;;;;;;;;4911326;29;20595;-75
2023/09/09 02:57:13;;;;;;;10.07;9.10;;;;;;;;;;4915577;29;20212;-75
2023/09/09 02:59:39;;;;;;;10.40;9.37;;;;;;;;;;4899781;29;20197;-75
2023/09/09 03:02:08;;;;;;;10.43;9.43;;;;;;;;;;4906887;29;20191;-76
2023/09/09 03:04:34;;;;;;;10.83;9.73;;;;;;;;;;4914123;29;20194;-75
2023/09/09 03:07:00;;;;;;;8.57;7.73;;;;;;;;;;4915263;29;20198;-75
2023/09/09 03:09:29;;;;;;;9.20;8.37;;;;;;;;;;4914068;29;20186;-75
2023/09/09 03:11:56;;;;;;;8.80;8.00;;;;;;;;;;4915383;29;20178;-75
2023/09/09 03:14:22;;;;;;;8.20;7.40;;;;;;;;;;4920673;29;20244;-75
2023/09/09 03:16:49;;;;;;;7.90;7.20;;;;;;;;;;4917453;29;20226;-75
2023/09/09 03:19:15;;;;;;;8.13;7.43;;;;;;;;;;4914256;29;20256;-75
2023/09/09 03:21:41;;;;;;;7.73;7.03;;;;;;;;;;4915524;29;20669;-75
2023/09/09 03:24:07;;;;;;;8.17;7.37;;;;;;;;;;4911735;29;20190;-75
2023/09/09 03:26:33;;;;;;;8.23;7.43;;;;;;;;;;4910141;29;20293;-75
2023/09/09 03:29:00;;;;;;;8.67;7.90;;;;;;;;;;4923201;29;20198;-75
2023/09/09 03:31:26;;;;;;;8.20;7.50;;;;;;;;;;4915387;29;20191;-75
2023/09/09 03:33:52;;;;;;;7.87;7.17;;;;;;;;;;4925653;29;20654;-75
2023/09/09 03:36:19;;;;;;;8.80;8.00;;;;;;;;;;4926061;29;20238;-75
2023/09/09 03:38:45;;;;;;;7.50;6.80;;;;;;;;;;4916825;29;20190;-76
2023/09/09 03:41:12;;;;;;;7.43;6.83;;;;;;;;;;4910109;29;20185;-75
2023/09/09 03:43:40;;;;;;;6.23;5.70;;;;;;;;;;4931123;29;20257;-75
2023/09/09 03:46:06;;;;;;;5.30;4.90;;;;;;;;;;4913733;29;20214;-77
2023/09/09 03:48:33;;;;;;;5.93;4.90;;;;;;;;;;4914988;29;20241;-76
2023/09/09 03:51:03;;;;;;;5.03;4.63;;;;;;;;;;4914754;29;20187;-74
2023/09/09 03:53:30;;;;;;;6.70;6.10;;;;;;;;;;4898568;29;20198;-74
2023/09/09 03:55:59;;;;;;;5.20;4.80;;;;;;;;;;4913214;29;20306;-76
2023/09/09 03:58:25;;;;;;;6.40;5.90;;;;;;;;;;4914446;29;20187;-75
2023/09/09 04:01:04;;;;;;;6.80;6.20;;;;;;;;;;4913705;29;20686;-75
2023/09/09 04:03:33;;;;;;;7.20;6.50;;;;;;;;;;4912836;29;20197;-78
2023/09/09 04:06:01;;;;;;;7.47;6.53;;;;;;;;;;4909806;29;20713;-78
2023/09/09 04:08:29;;;;;;;9.07;7.07;;;;;;;;;;4913888;29;20179;-80
2023/09/09 04:10:55;;;;;;;8.03;7.33;;;;;;;;;;4912631;29;20238;-81
2023/09/09 04:13:21;;;;;;;8.80;8.00;;;;;;;;;;4916073;29;20182;-78
2023/09/09 04:15:47;;;;;;;8.30;7.43;;;;;;;;;;4907993;29;20710;-77
2023/09/09 04:18:13;;;;;;;8.00;7.30;;;;;;;;;;4900287;29;20191;-78
2023/09/09 04:20:40;;;;;;;10.07;7.47;;;;;;;;;;4915694;29;20210;-76
2023/09/09 04:23:06;;;;;;;8.20;7.40;;;;;;;;;;4906976;29;20242;-77
2023/09/09 04:25:33;;;;;;;8.77;7.87;;;;;;;;;;4905924;29;20297;-77
2023/09/09 04:27:59;;;;;;;8.80;7.90;;;;;;;;;;4912271;29;20327;-77
2023/09/09 04:30:25;;;;;;;9.43;8.43;;;;;;;;;;4915100;29;20266;-78
2023/09/09 04:32:51;;;;;;;9.77;8.10;;;;;;;;;;4915302;29;20277;-78
2023/09/09 04:35:18;;;;;;;9.27;8.27;;;;;;;;;;4910713;29;20211;-77
2023/09/09 04:37:44;;;;;;;9.17;8.00;;;;;;;;;;4912514;29;20187;-77
2023/09/09 04:40:11;;;;;;;8.37;7.67;;;;;;;;;;4909193;29;20215;-77
2023/09/09 04:42:37;;;;;;;8.80;7.90;;;;;;;;;;4908198;29;20222;-77
2023/09/09 04:45:04;;;;;;;8.43;7.70;;;;;;;;;;4905911;29;20214;-77
2023/09/09 04:47:30;;;;;;;8.90;8.00;;;;;;;;;;4915273;29;20187;-77
2023/09/09 04:49:58;;;;;;;8.27;7.47;;;;;;;;;;4916372;29;20215;-77
2023/09/09 04:52:25;;;;;;;6.40;5.77;;;;;;;;;;4915318;29;20183;-77
2023/09/09 04:54:51;;;;;;;4.80;4.40;;;;;;;;;;4908893;29;20242;-77
2023/09/09 04:57:17;;;;;;;4.20;3.90;;;;;;;;;;4912075;29;20573;-77
2023/09/09 04:59:43;;;;;;;4.17;3.87;;;;;;;;;;4918412;29;20182;-77
2023/09/09 05:02:10;;;;;;;4.47;4.17;;;;;;;;;;4898295;29;20676;-78
2023/09/09 05:04:36;;;;;;;4.73;4.33;;;;;;;;;;4903231;29;20617;-78
2023/09/09 05:07:02;;;;;;;6.03;5.43;;;;;;;;;;4906769;29;20198;-78
2023/09/09 05:09:28;;;;;;;6.10;5.60;;;;;;;;;;4913985;29;20190;-77
2023/09/09 05:11:54;;;;;;;7.50;6.80;;;;;;;;;;4900548;29;20573;-77
2023/09/09 05:14:21;;;;;;;7.83;7.10;;;;;;;;;;4907255;29;20201;-77
2023/09/09 05:16:47;;;;;;;8.60;7.70;;;;;;;;;;4909108;29;20241;-77
2023/09/09 05:19:13;;;;;;;8.13;7.43;;;;;;;;;;4907665;29;20201;-77
2023/09/09 05:21:39;;;;;;;5.90;5.40;;;;;;;;;;4906348;29;20605;-77
2023/09/09 05:24:06;;;;;;;7.40;6.70;;;;;;;;;;4911439;29;20186;-77
2023/09/09 05:26:32;;;;;;;7.23;6.50;;;;;;;;;;4896603;29;20231;-77
2023/09/09 05:29:00;;;;;;;6.80;6.20;;;;;;;;;;4904983;29;20230;-77
2023/09/09 05:31:26;;;;;;;7.47;6.77;;;;;;;;;;4909322;29;20210;-77
2023/09/09 05:33:52;;;;;;;8.63;7.93;;;;;;;;;;4905660;29;20191;-78
2023/09/09 05:36:19;;;;;;;10.13;9.23;;;;;;;;;;4905329;29;20245;-77
2023/09/09 05:38:45;;;;;;;9.57;8.53;;;;;;;;;;4906641;29;20227;-77
2023/09/09 05:41:11;;;;;;;8.87;8.07;;;;;;;;;;4904949;29;20197;-77
2023/09/09 05:43:37;;;;;;;10.87;9.97;;;;;;;;;;4898468;29;20198;-77
2023/09/09 05:46:04;;;;;;;10.70;9.60;;;;;;;;;;4922622;29;20694;-77
2023/09/09 05:48:30;;;;;;;9.53;8.63;;;;;;;;;;4890485;29;20191;-77
2023/09/09 05:50:56;;;;;;;9.10;8.30;;;;;;;;;;4913036;29;20246;-77
2023/09/09 05:53:22;;;;;;;8.03;7.33;;;;;;;;;;4903616;29;20311;-78
2023/09/09 05:55:50;;;;;;;7.80;7.07;;;;;;;;;;4910757;29;20584;-77
2023/09/09 05:58:17;;;;;;;7.90;7.10;;;;;;;;;;4895475;29;20740;-78
2023/09/09 06:00:43;;;;;;;8.40;7.60;;;;;;;;;;4896409;29;20727;-77
2023/09/09 06:03:09;;;;;;;9.13;8.33;;;;;;;;;;4914328;29;20210;-83
2023/09/09 06:05:36;;;;;;;11.30;8.33;;;;;;;;;;4913897;29;20372;-81
2023/09/09 06:08:02;;;;;;;8.10;7.40;;;;;;;;;;4914855;29;20199;-82
2023/09/09 06:10:29;;;;;;;9.27;7.73;;;;;;;;;;4899804;29;20203;-81
2023/09/09 06:12:55;;;;;;;10.20;9.27;;;;;;;;;;4911489;29;20187;-83
2023/09/09 06:15:21;;;;;;;9.90;9.00;;;;;;;;;;4895873;29;20223;-83
2023/09/09 06:17:49;;;;;;;9.90;9.00;;;;;;;;;;4909562;29;20175;-83
2023/09/09 06:20:15;;;;;;;11.37;10.20;;;;;;;;;;4916349;29;20206;-82
2023/09/09 06:22:42;;;;;;;11.03;9.90;;;;;;;;;;4902543;29;20191;-82
2023/09/09 06:25:09;;;;;;;11.33;10.17;;;;;;;;;;4890834;29;20229;-81
2023/09/09 06:27:35;;;;;;;13.53;12.23;;;;;;;;;;4920559;29;20217;-81
2023/09/09 06:30:01;;;;;;;16.33;14.50;;;;;;;;;;4907710;29;20777;-83
2023/09/09 06:32:28;;;;;;;17.40;15.77;;;;;;;;;;4888269;29;20662;-82
2023/09/09 06:34:54;;;;;;;17.23;15.53;;;;;;;;;;4898911;29;20214;-81
2023/09/09 06:37:21;;;;;;;16.20;14.60;;;;;;;;;;4911494;29;20242;-81
2023/09/09 06:39:47;;;;;;;14.87;13.53;;;;;;;;;;4910697;29;20229;-81
2023/09/09 06:42:14;;;;;;;15.00;13.53;;;;;;;;;;4905295;29;20190;-81
2023/09/09 06:44:46;;;;;;;14.00;12.70;;;;;;;;;;4927360;29;20212;-83
2023/09/09 06:47:12;;;;;;;14.17;12.77;;;;;;;;;;4924635;29;20278;-82
2023/09/09 06:49:38;;;;;;;16.60;14.77;;;;;;;;;;4923326;29;20281;-81
2023/09/09 06:52:05;;;;;;;16.83;15.17;;;;;;;;;;4907893;29;20197;-82
2023/09/09 06:54:31;;;;;;;16.03;14.63;;;;;;;;;;4911441;29;20509;-81
2023/09/09 06:56:57;;;;;;;17.87;16.00;;;;;;;;;;4911972;29;20305;-81
2023/09/09 06:59:23;;;;;;;17.37;15.77;;;;;;;;;;4910809;29;20250;-81
2023/09/09 07:01:50;;;;;;;17.30;15.63;;;;;;;;;;4918618;29;20214;-81
2023/09/09 07:04:17;;;;;;;16.60;14.90;;;;;;;;;;4909256;29;20191;-81
2023/09/09 07:06:43;;;;;;;14.80;13.40;;;;;;;;;;4917448;29;20230;-81
2023/09/09 07:09:11;;;;;;;16.20;14.50;;;;;;;;;;4902819;29;20195;-81
2023/09/09 07:11:38;;;;;;;15.87;14.37;;;;;;;;;;4913360;29;20186;-81
2023/09/09 07:14:04;;;;;;;17.17;15.50;;;;;;;;;;4911199;29;20227;-81
2023/09/09 07:16:32;;;;;;;17.43;15.70;;;;;;;;;;4924269;29;20225;-81
2023/09/09 07:18:59;;;;;;;16.83;15.23;;;;;;;;;;4920452;29;20187;-81
2023/09/09 07:21:25;;;;;;;14.67;13.37;;;;;;;;;;4907897;29;20194;-81
2023/09/09 07:23:51;;;;;;;15.83;14.07;;;;;;;;;;4916785;29;20187;-81
2023/09/09 07:26:18;;;;;;;16.47;14.83;;;;;;;;;;4915599;29;20292;-81
2023/09/09 07:28:44;;;;;;;17.27;15.47;;;;;;;;;;4901640;29;20648;-81
2023/09/09 07:31:10;;;;;;;16.57;14.80;;;;;;;;;;4917345;29;20736;-80
2023/09/09 07:33:36;;;;;;;16.87;15.30;;;;;;;;;;4921728;29;20690;-81
2023/09/09 07:36:03;;;;;;;16.03;14.53;;;;;;;;;;4920616;29;20302;-81
2023/09/09 07:38:29;;;;;;;17.10;15.40;;;;;;;;;;4919906;29;20190;-82
2023/09/09 07:40:56;;;;;;;15.70;14.20;;;;;;;;;;4924290;29;20187;-81
2023/09/09 07:43:22;;;;;;;14.50;13.03;;;;;;;;;;4924179;29;20162;-81
2023/09/09 07:45:50;;;;;;;12.77;11.47;;;;;;;;;;4919408;29;20245;-80
2023/09/09 07:48:16;;;;;;;12.53;11.30;;;;;;;;;;4908610;29;20194;-81
2023/09/09 07:50:49;;;;;;;14.10;11.90;;;;;;;;;;4936770;29;20278;-81
2023/09/09 07:53:15;;;;;;;15.77;11.43;;;;;;;;;;4926134;29;20285;-81
2023/09/09 07:55:41;;;;;;;12.37;11.27;;;;;;;;;;4917428;29;20231;-81
2023/09/09 07:58:07;;;;;;;13.63;12.30;;;;;;;;;;4925727;29;20674;-81
2023/09/09 08:00:36;;;;;;;15.20;13.53;;;;;;;;;;4920331;29;20330;-81
2023/09/09 08:03:04;;;;;;;13.33;11.97;;;;;;;;;;4925389;29;20187;-81
2023/09/09 08:05:30;;;;;;;14.13;12.43;;;;;;;;;;4917406;29;20207;-81
2023/09/09 08:07:57;;;;;;;14.67;13.20;;;;;;;;;;4918888;29;20266;-81
2023/09/09 08:10:23;;;;;;;13.10;11.87;;;;;;;;;;4906691;29;20186;-82
2023/09/09 08:12:49;;;;;;;13.23;11.90;;;;;;;;;;4916101;29;20809;-81
2023/09/09 08:15:15;;;;;;;13.13;11.90;;;;;;;;;;4913842;29;20605;-83
2023/09/09 08:17:41;;;;;;;13.10;11.83;;;;;;;;;;4894432;29;20278;-81
2023/09/09 08:20:07;;;;;;;12.87;11.57;;;;;;;;;;4920005;29;20190;-82
2023/09/09 08:22:34;;;;;;;16.00;12.53;;;;;;;;;;4907625;29;20195;-82
2023/09/09 08:25:00;;;;;;;15.50;13.93;;;;;;;;;;4917749;29;20217;-82
2023/09/09 08:27:27;;;;;;;15.43;13.87;;;;;;;;;;4911604;29;20615;-82
2023/09/09 08:29:53;;;;;;;15.43;13.83;;;;;;;;;;4917496;29;20222;-82
2023/09/09 08:32:20;;;;;;;15.93;14.33;;;;;;;;;;4906936;29;20630;-83
2023/09/09 08:34:46;;;;;;;16.57;14.20;;;;;;;;;;4913307;29;20689;-82
2023/09/09 08:37:12;;;;;;;15.60;13.97;;;;;;;;;;4910639;29;20273;-83
2023/09/09 08:39:38;;;;;;;15.63;13.97;;;;;;;;;;4911153;29;20643;-83
2023/09/09 08:42:04;;;;;;;15.40;13.53;;;;;;;;;;4910353;29;20191;-82
2023/09/09 08:44:51;;;;;;;16.40;13.97;;;;;;;;;;4935180;29;20183;-82
2023/09/09 08:47:18;;;;;;;16.47;14.10;;;;;;;;;;4884820;29;20212;-82
2023/09/09 08:49:46;;;;;;;18.27;16.10;;;;;;;;;;4916266;29;20224;-84
2023/09/09 08:52:18;;;;;;;17.63;15.93;;;;;;;;;;4918146;29;20195;-82
2023/09/09 08:54:45;;;;;;;15.83;14.33;;;;;;;;;;4915558;29;20270;-83
2023/09/09 08:57:11;;;;;;;16.37;13.83;;;;;;;;;;4899368;29;20221;-82
2023/09/09 08:59:38;;;;;;;17.27;15.47;;;;;;;;;;4904863;29;20274;-82
2023/09/09 09:02:05;;;;;;;15.93;14.33;;;;;;;;;;4904141;29;20193;-82
2023/09/09 09:04:32;;;;;;;14.10;12.80;;;;;;;;;;4913223;29;20224;-82
2023/09/09 09:06:59;;;;;;;14.50;13.10;;;;;;;;;;4921544;29;20190;-82
2023/09/09 09:09:26;;;;;;;16.07;14.47;;;;;;;;;;4918258;29;20194;-82
2023/09/09 09:11:52;;;;;;;14.73;13.27;;;;;;;;;;4918425;29;20671;-82
2023/09/09 09:14:18;;;;;;;14.03;12.63;;;;;;;;;;4924947;29;20276;-83
2023/09/09 09:16:45;;;;;;;17.00;14.03;;;;;;;;;;4928677;29;20222;-83
2023/09/09 09:19:18;;;;;;;15.00;13.50;;;;;;;;;;4919635;29;20193;-82
2023/09/09 09:21:44;;;;;;;16.77;13.93;;;;;;;;;;4939903;29;20560;-83
2023/09/09 09:24:10;;;;;;;16.47;13.47;;;;;;;;;;4920164;29;20187;-84
2023/09/09 09:26:36;;;;;;;16.07;14.47;;;;;;;;;;4903768;29;20210;-83
2023/09/09 09:29:06;;;;;;;15.10;13.60;;;;;;;;;;4921926;29;20194;-83
2023/09/09 09:31:33;;;;;;;14.20;12.80;;;;;;;;;;4921390;29;20194;-82
2023/09/09 09:33:59;;;;;;;15.90;14.27;;;;;;;;;;4918928;29;20623;-84
2023/09/09 09:36:26;;;;;;;14.67;12.83;;;;;;;;;;4915566;29;20222;-83
2023/09/09 09:38:52;;;;;;;13.73;12.43;;;;;;;;;;4920792;29;20255;-82
2023/09/09 09:41:19;;;;;;;16.43;13.20;;;;;;;;;;4921850;29;20261;-82
2023/09/09 09:43:46;;;;;;;17.10;15.30;;;;;;;;;;4923453;29;20183;-84
2023/09/09 09:46:16;;;;;;;13.90;12.60;;;;;;;;;;4921718;29;20213;-82
2023/09/09 09:48:42;;;;;;;16.43;13.17;;;;;;;;;;4918497;29;20187;-82
2023/09/09 09:51:08;;;;;;;13.60;12.30;;;;;;;;;;4918752;29;20197;-82
2023/09/09 09:53:50;;;;;;;12.37;11.07;;;;;;;;;;4919376;29;20244;-82
2023/09/09 09:56:17;;;;;;;14.20;12.50;;;;;;;;;;4902531;29;20213;-82
2023/09/09 09:58:48;;;;;;;12.63;11.33;;;;;;;;;;4920507;29;20186;-82
2023/09/09 10:01:14;;;;;;;12.93;11.27;;;;;;;;;;4921788;29;20198;-84
2023/09/09 10:03:49;;;;;;;12.00;10.80;;;;;;;;;;4904653;29;20194;-84
2023/09/09 10:06:25;;;;;;;12.13;10.97;;;;;;;;;;4919659;29;20268;-83
2023/09/09 10:08:57;;;;;;;10.97;9.97;;;;;;;;;;4921799;29;20290;-82
2023/09/09 10:11:25;;;;;;;12.20;10.83;;;;;;;;;;4918969;29;20630;-83
2023/09/09 10:14:00;;;;;;;11.20;10.10;;;;;;;;;;4919216;29;20206;-82
2023/09/09 10:16:28;;;;;;;12.03;10.73;;;;;;;;;;4912419;29;20211;-82
2023/09/09 10:18:55;;;;;;;13.73;12.43;;;;;;;;;;4917455;29;20686;-83
2023/09/09 10:21:21;;;;;;;12.70;11.37;;;;;;;;;;4920636;29;20191;-82
2023/09/09 10:23:49;;;;;;;11.70;10.60;;;;;;;;;;4919005;29;20186;-82
2023/09/09 10:26:17;;;;;;;12.97;11.63;;;;;;;;;;4932403;29;20246;-82
2023/09/09 10:28:44;;;;;;;12.27;11.07;;;;;;;;;;4915914;29;20188;-83
2023/09/09 10:31:12;;;;;;;11.03;9.97;;;;;;;;;;4916882;29;20564;-84
2023/09/09 10:33:45;;;;;;;11.47;9.57;;;;;;;;;;4920754;29;20222;-82
2023/09/09 10:36:14;;;;;;;11.57;10.53;;;;;;;;;;4911191;29;20219;-82
2023/09/09 10:38:40;;;;;;;11.70;10.33;;;;;;;;;;4917587;29;20222;-81
2023/09/09 10:41:07;;;;;;;11.57;10.37;;;;;;;;;;4916980;29;20198;-82
2023/09/09 10:43:33;;;;;;;10.33;9.33;;;;;;;;;;4919589;29;20182;-82
2023/09/09 10:45:59;;;;;;;10.67;9.60;;;;;;;;;;4913132;29;20214;-86
2023/09/09 10:48:27;;;;;;;9.77;8.70;;;;;;;;;;4914335;29;20198;-86
2023/09/09 10:50:53;;;;;;;9.70;8.80;;;;;;;;;;4895813;29;20258;-85
2023/09/09 10:53:27;;;;;;;9.90;8.90;;;;;;;;;;4895882;29;20265;-80
2023/09/09 10:55:54;;;;;;;9.37;8.57;;;;;;;;;;4908188;29;20282;-83
2023/09/09 10:58:21;;;;;;;8.87;7.70;;;;;;;;;;4913341;29;20212;-81
2023/09/09 11:00:49;;;;;;;8.10;7.30;;;;;;;;;;4916292;29;20194;-83
2023/09/09 11:03:22;;;;;;;7.97;7.17;;;;;;;;;;4922271;29;20186;-82
2023/09/09 11:06:00;;;;;;;8.63;7.70;;;;;;;;;;4906855;29;20228;-80
2023/09/09 11:08:29;;;;;;;8.20;7.40;;;;;;;;;;4915636;29;20202;-83
2023/09/09 11:11:14;;;;;;;8.73;7.83;;;;;;;;;;4914328;29;20190;-79
2023/09/09 11:13:41;;;;;;;8.13;7.33;;;;;;;;;;4909011;29;20285;-79
2023/09/09 11:16:07;;;;;;;8.30;7.60;;;;;;;;;;4912637;29;20213;-78
2023/09/09 11:18:37;;;;;;;8.43;7.60;;;;;;;;;;4912111;29;20229;-78
2023/09/09 11:21:04;;;;;;;10.17;9.13;;;;;;;;;;4908341;29;20211;-78
2023/09/09 11:23:31;;;;;;;9.03;8.13;;;;;;;;;;4916004;29;20722;-78
2023/09/09 11:25:58;;;;;;;9.17;7.40;;;;;;;;;;4919440;29;20578;-79
2023/09/09 11:28:24;;;;;;;8.23;7.50;;;;;;;;;;4915132;29;20653;-78
2023/09/09 11:30:50;;;;;;;8.83;8.03;;;;;;;;;;4913322;29;20187;-78
2023/09/09 11:33:26;;;;;;;10.63;8.10;;;;;;;;;;4911256;29;20189;-78
2023/09/09 11:35:52;;;;;;;7.73;7.03;;;;;;;;;;4923161;29;20214;-78
2023/09/09 11:38:18;;;;;;;8.27;6.80;;;;;;;;;;4916575;29;20179;-79
2023/09/09 11:40:46;;;;;;;8.33;7.27;;;;;;;;;;4915809;29;20529;-78
2023/09/09 11:43:14;;;;;;;7.03;6.33;;;;;;;;;;4915464;29;20194;-78
2023/09/09 11:45:40;;;;;;;7.63;6.93;;;;;;;;;;4913843;29;20314;-78
2023/09/09 11:48:13;;;;;;;7.03;6.43;;;;;;;;;;4919523;29;20222;-78
2023/09/09 11:50:41;;;;;;;6.90;6.10;;;;;;;;;;4912174;29;20878;-78
2023/09/09 11:53:08;;;;;;;6.97;6.27;;;;;;;;;;4917546;29;20214;-79
2023/09/09 11:55:34;;;;;;;7.47;6.77;;;;;;;;;;4903121;29;20219;-78
2023/09/09 11:58:00;;;;;;;6.80;6.10;;;;;;;;;;4913405;29;20190;-80
2023/09/09 12:00:26;;;;;;;7.30;6.60;;;;;;;;;;4919808;29;20185;-78
2023/09/09 12:02:52;;;;;;;7.80;6.53;;;;;;;;;;4916547;29;20229;-78
2023/09/09 12:05:19;;;;;;;9.13;6.27;;;;;;;;;;4915806;29;20206;-80
2023/09/09 12:07:45;;;;;;;7.20;6.60;;;;;;;;;;4915493;29;20647;-78
2023/09/09 12:10:14;;;;;;;6.20;5.70;;;;;;;;;;4914560;29;20215;-79
2023/09/09 12:12:47;;;;;;;5.90;5.40;;;;;;;;;;4916380;29;20184;-80
2023/09/09 12:15:15;;;;;;;5.70;5.20;;;;;;;;;;4913037;29;20202;-78
2023/09/09 12:17:41;;;;;;;6.10;5.50;;;;;;;;;;4916136;29;20213;-79
2023/09/09 12:20:08;;;;;;;6.13;5.53;;;;;;;;;;4915711;29;20242;-78
2023/09/09 12:22:46;;;;;;;6.20;5.60;;;;;;;;;;4914945;29;20222;-78
2023/09/09 12:25:31;;;;;;;5.63;5.23;;;;;;;;;;4915422;29;20634;-78
2023/09/09 12:27:58;;;;;;;5.43;4.93;;;;;;;;;;4914725;29;20187;-78
2023/09/09 12:30:38;;;;;;;5.33;4.93;;;;;;;;;;4915662;29;20184;-78
2023/09/09 12:33:05;;;;;;;5.20;4.80;;;;;;;;;;4914593;29;20199;-78
2023/09/09 12:35:35;;;;;;;4.90;4.37;;;;;;;;;;4912367;29;20220;-78
2023/09/09 12:38:01;;;;;;;5.83;5.43;;;;;;;;;;4915170;29;20188;-78
2023/09/09 12:40:28;;;;;;;6.10;5.60;;;;;;;;;;4914287;29;20241;-79
2023/09/09 12:42:57;;;;;;;6.07;5.50;;;;;;;;;;4913197;29;20195;-79
2023/09/09 12:45:24;;;;;;;5.60;5.10;;;;;;;;;;4913930;29;20581;-79
2023/09/09 12:47:51;;;;;;;5.53;5.00;;;;;;;;;;4910710;29;20233;-79
2023/09/09 12:50:18;;;;;;;5.17;4.67;;;;;;;;;;4917698;29;20273;-79
2023/09/09 12:52:44;;;;;;;5.40;5.00;;;;;;;;;;4912938;29;20210;-79
2023/09/09 12:55:11;;;;;;;6.63;4.83;;;;;;;;;;4913382;29;20255;-81
2023/09/09 12:57:37;;;;;;;5.60;5.20;;;;;;;;;;4912467;29;20220;-80
2023/09/09 13:00:04;;;;;;;5.73;4.77;;;;;;;;;;4921132;29;20229;-79
2023/09/09 13:02:30;;;;;;;5.33;4.93;;;;;;;;;;4922303;29;20192;-79
2023/09/09 13:04:56;;;;;;;5.60;4.77;;;;;;;;;;4914631;29;20208;-79
2023/09/09 13:07:23;;;;;;;4.73;4.33;;;;;;;;;;4923666;29;20727;-79
2023/09/09 13:09:49;;;;;;;5.03;4.63;;;;;;;;;;4909464;29;20200;-79
2023/09/09 13:12:15;;;;;;;5.70;4.37;;;;;;;;;;4924592;29;20332;-79
2023/09/09 13:14:41;;;;;;;5.23;4.57;;;;;;;;;;4900789;29;20196;-80
2023/09/09 13:17:07;;;;;;;5.03;4.57;;;;;;;;;;4918141;29;21011;-81
2023/09/09 13:19:33;;;;;;;5.10;4.50;;;;;;;;;;4918281;29;20197;-82
2023/09/09 13:21:59;;;;;;;5.03;4.63;;;;;;;;;;4911826;29;20290;-80
2023/09/09 13:24:25;;;;;;;5.27;4.70;;;;;;;;;;4914925;29;20293;-80
2023/09/09 13:26:52;;;;;;;4.80;4.40;;;;;;;;;;4905693;29;20646;-79
2023/09/09 13:29:18;;;;;;;5.80;4.47;;;;;;;;;;4905077;29;20196;-79
2023/09/09 13:31:44;;;;;;;4.50;4.10;;;;;;;;;;4913723;29;20188;-80
2023/09/09 13:34:10;;;;;;;4.38;3.97;;;;;;;;;;4918094;29;20276;-79
2023/09/09 13:36:36;;;;;;;5.00;4.60;;;;;;;;;;4925766;29;20321;-80
2023/09/09 13:39:02;;;;;;;4.30;4.00;;;;;;;;;;4922901;29;20194;-79
2023/09/09 13:41:29;;;;;;;5.00;4.60;;;;;;;;;;4915744;29;20217;-79
2023/09/09 13:43:56;;;;;;;4.57;4.18;;;;;;;;;;4925845;29;20194;-79
2023/09/09 13:46:22;;;;;;;4.38;3.97;;;;;;;;;;4915515;29;20249;-79
2023/09/09 13:48:48;;;;;;;4.20;3.90;;;;;;;;;;4920925;29;20186;-82
2023/09/09 13:51:14;;;;;;;4.70;4.30;;;;;;;;;;4910263;29;20646;-80
2023/09/09 13:53:40;;;;;;;4.63;4.20;;;;;;;;;;4901283;29;20201;-79
2023/09/09 13:56:06;;;;;;;4.57;4.18;;;;;;;;;;4921344;29;20230;-79
2023/09/09 13:58:33;;;;;;;4.55;4.15;;;;;;;;;;4919621;29;20186;-80
2023/09/09 14:00:59;;;;;;;6.15;4.43;;;;;;;;;;4907183;29;20206;-79
2023/09/09 14:03:25;;;;;;;4.82;4.35;;;;;;;;;;4913621;29;20193;-79
2023/09/09 14:05:51;;;;;;;4.60;4.20;;;;;;;;;;4914965;29;20211;-79
2023/09/09 14:08:17;;;;;;;4.57;4.20;;;;;;;;;;4920394;29;20186;-79
2023/09/09 14:10:43;;;;;;;4.82;4.35;;;;;;;;;;4913978;29;20214;-79
2023/09/09 14:13:09;;;;;;;4.00;3.70;;;;;;;;;;4919675;29;20270;-80
2023/09/09 14:15:35;;;;;;;4.53;4.13;;;;;;;;;;4913649;29;20221;-80
2023/09/09 14:18:01;;;;;;;4.38;4.00;;;;;;;;;;4922513;29;20183;-79
2023/09/09 14:20:27;;;;;;;4.93;4.20;;;;;;;;;;4917729;29;20227;-79
2023/09/09 14:22:53;;;;;;;4.40;4.10;;;;;;;;;;4909760;29;20206;-79
2023/09/09 14:25:20;;;;;;;5.88;4.00;;;;;;;;;;4912682;29;20554;-79
2023/09/09 14:27:46;;;;;;;4.25;3.85;;;;;;;;;;4917671;29;20270;-80
2023/09/09 14:30:12;;;;;;;4.32;3.92;;;;;;;;;;4913377;29;20277;-81
2023/09/09 14:32:38;;;;;;;4.63;4.20;;;;;;;;;;4917151;29;20301;-80